sensor_id;sensor_type;location;lat;lon;timestamp;temperature;humidity
40828;DHT22;26549;50.918;5.338;2024-02-16T00:02:01;15.00;99.90
40828;DHT22;26549;50.918;5.338;2024-02-16T00:04:27;15.10;99.90
40828;DHT22;26549;50.918;5.338;2024-02-16T00:09:37;15.10;99.90
40828;DHT22;26549;50.918;5.338;2024-02-16T00:12:03;15.10;99.90
40828;DHT22;26549;50.918;5.338;2024-02-16T00:14:47;15.20;99.90
40828;DHT22;26549;50.918;5.338;2024-02-16T00:17:13;15.20;99.90
40828;DHT22;26549;50.918;5.338;2024-02-16T00:19:39;15.10;99.90
40828;DHT22;26549;50.918;5.338;2024-02-16T00:22:04;15.20;99.90
40828;DHT22;26549;50.918;5.338;2024-02-16T00:24:33;15.10;99.90
40828;DHT22;26549;50.918;5.338;2024-02-16T00:26:59;15.10;99.90
40828;DHT22;26549;50.918;5.338;2024-02-16T00:29:26;15.20;99.90
40828;DHT22;26549;50.918;5.338;2024-02-16T00:31:52;15.30;99.90
40828;DHT22;26549;50.918;5.338;2024-02-16T00:34:17;15.30;99.90
40828;DHT22;26549;50.918;5.338;2024-02-16T00:36:43;15.30;99.90
40828;DHT22;26549;50.918;5.338;2024-02-16T00:39:09;15.20;99.90
40828;DHT22;26549;50.918;5.338;2024-02-16T00:41:35;15.20;99.90
40828;DHT22;26549;50.918;5.338;2024-02-16T00:44:01;15.10;99.90
40828;DHT22;26549;50.918;5.338;2024-02-16T00:46:27;15.10;99.90
40828;DHT22;26549;50.918;5.338;2024-02-16T00:54:22;15.20;99.90
40828;DHT22;26549;50.918;5.338;2024-02-16T00:57:06;15.10;99.90
40828;DHT22;26549;50.918;5.338;2024-02-16T00:59:32;15.00;99.90
40828;DHT22;26549;50.918;5.338;2024-02-16T01:01:57;15.00;99.90
40828;DHT22;26549;50.918;5.338;2024-02-16T01:07:07;15.10;99.90
40828;DHT22;26549;50.918;5.338;2024-02-16T01:09:52;15.00;99.90
40828;DHT22;26549;50.918;5.338;2024-02-16T01:12:17;15.00;99.90
40828;DHT22;26549;50.918;5.338;2024-02-16T01:14:43;15.00;99.90
40828;DHT22;26549;50.918;5.338;2024-02-16T01:17:09;14.80;99.90
40828;DHT22;26549;50.918;5.338;2024-02-16T01:19:34;14.80;99.90
40828;DHT22;26549;50.918;5.338;2024-02-16T01:22:00;14.80;99.90
40828;DHT22;26549;50.918;5.338;2024-02-16T01:24:26;14.90;99.90
40828;DHT22;26549;50.918;5.338;2024-02-16T01:26:52;14.80;99.90
40828;DHT22;26549;50.918;5.338;2024-02-16T01:29:37;14.80;99.90
40828;DHT22;26549;50.918;5.338;2024-02-16T01:37:32;14.80;99.90
40828;DHT22;26549;50.918;5.338;2024-02-16T01:42:49;14.80;99.90
40828;DHT22;26549;50.918;5.338;2024-02-16T01:45:15;14.80;99.90
40828;DHT22;26549;50.918;5.338;2024-02-16T01:47:43;14.80;99.90
40828;DHT22;26549;50.918;5.338;2024-02-16T01:50:10;14.80;99.90
40828;DHT22;26549;50.918;5.338;2024-02-16T01:52:36;14.80;99.90
40828;DHT22;26549;50.918;5.338;2024-02-16T01:55:05;14.80;99.90
40828;DHT22;26549;50.918;5.338;2024-02-16T01:57:34;14.80;99.90
40828;DHT22;26549;50.918;5.338;2024-02-16T02:00:00;14.90;99.90
40828;DHT22;26549;50.918;5.338;2024-02-16T02:02:26;14.80;99.90
40828;DHT22;26549;50.918;5.338;2024-02-16T02:05:12;14.90;99.90
40828;DHT22;26549;50.918;5.338;2024-02-16T02:07:38;14.80;99.90
40828;DHT22;26549;50.918;5.338;2024-02-16T02:10:04;14.90;99.90
40828;DHT22;26549;50.918;5.338;2024-02-16T02:12:49;14.90;99.90
40828;DHT22;26549;50.918;5.338;2024-02-16T02:15:14;14.90;99.90
40828;DHT22;26549;50.918;5.338;2024-02-16T02:17:40;14.90;99.90
40828;DHT22;26549;50.918;5.338;2024-02-16T02:20:07;14.90;99.90
40828;DHT22;26549;50.918;5.338;2024-02-16T02:22:39;15.00;99.90
40828;DHT22;26549;50.918;5.338;2024-02-16T02:25:05;15.00;99.90
40828;DHT22;26549;50.918;5.338;2024-02-16T02:27:50;15.10;99.90
40828;DHT22;26549;50.918;5.338;2024-02-16T02:30:16;14.90;99.90
40828;DHT22;26549;50.918;5.338;2024-02-16T02:32:42;15.10;99.90
40828;DHT22;26549;50.918;5.338;2024-02-16T02:35:08;15.00;99.90
40828;DHT22;26549;50.918;5.338;2024-02-16T02:37:34;15.10;99.90
40828;DHT22;26549;50.918;5.338;2024-02-16T02:40:37;15.00;99.90
40828;DHT22;26549;50.918;5.338;2024-02-16T02:43:03;14.90;99.90
40828;DHT22;26549;50.918;5.338;2024-02-16T02:45:29;14.90;99.90
40828;DHT22;26549;50.918;5.338;2024-02-16T02:47:55;14.90;99.90
40828;DHT22;26549;50.918;5.338;2024-02-16T02:50:20;14.90;99.90
40828;DHT22;26549;50.918;5.338;2024-02-16T02:53:05;14.90;99.90
40828;DHT22;26549;50.918;5.338;2024-02-16T02:55:31;15.00;99.90
40828;DHT22;26549;50.918;5.338;2024-02-16T02:57:57;15.10;99.90
40828;DHT22;26549;50.918;5.338;2024-02-16T03:00:23;15.00;99.90
40828;DHT22;26549;50.918;5.338;2024-02-16T03:03:08;15.00;99.90
40828;DHT22;26549;50.918;5.338;2024-02-16T03:05:33;14.90;99.90
40828;DHT22;26549;50.918;5.338;2024-02-16T03:08:00;15.00;99.90
40828;DHT22;26549;50.918;5.338;2024-02-16T03:10:27;15.00;99.90
40828;DHT22;26549;50.918;5.338;2024-02-16T03:12:56;15.00;99.90
40828;DHT22;26549;50.918;5.338;2024-02-16T03:15:22;15.10;99.90
40828;DHT22;26549;50.918;5.338;2024-02-16T03:17:48;15.10;99.90
40828;DHT22;26549;50.918;5.338;2024-02-16T03:20:14;15.00;99.90
40828;DHT22;26549;50.918;5.338;2024-02-16T03:22:39;15.10;99.90
40828;DHT22;26549;50.918;5.338;2024-02-16T03:25:05;15.00;99.90
40828;DHT22;26549;50.918;5.338;2024-02-16T03:27:31;15.00;99.90
40828;DHT22;26549;50.918;5.338;2024-02-16T03:29:57;15.10;99.90
40828;DHT22;26549;50.918;5.338;2024-02-16T03:32:22;15.10;99.90
40828;DHT22;26549;50.918;5.338;2024-02-16T03:34:48;15.20;99.90
40828;DHT22;26549;50.918;5.338;2024-02-16T03:37:33;15.20;99.90
40828;DHT22;26549;50.918;5.338;2024-02-16T03:39:59;15.10;99.90
40828;DHT22;26549;50.918;5.338;2024-02-16T03:42:24;15.20;99.90
40828;DHT22;26549;50.918;5.338;2024-02-16T03:44:50;15.20;99.90
40828;DHT22;26549;50.918;5.338;2024-02-16T03:47:16;15.20;99.90
40828;DHT22;26549;50.918;5.338;2024-02-16T03:49:43;15.20;99.90
40828;DHT22;26549;50.918;5.338;2024-02-16T03:52:08;15.30;99.90
40828;DHT22;26549;50.918;5.338;2024-02-16T03:54:34;15.30;99.90
40828;DHT22;26549;50.918;5.338;2024-02-16T03:57:00;15.20;99.90
40828;DHT22;26549;50.918;5.338;2024-02-16T03:59:26;15.30;99.90
40828;DHT22;26549;50.918;5.338;2024-02-16T04:04:36;15.30;99.90
40828;DHT22;26549;50.918;5.338;2024-02-16T04:07:02;15.20;99.90
40828;DHT22;26549;50.918;5.338;2024-02-16T04:09:28;15.20;99.90
40828;DHT22;26549;50.918;5.338;2024-02-16T04:11:54;15.20;99.90
40828;DHT22;26549;50.918;5.338;2024-02-16T04:14:19;15.30;99.90
40828;DHT22;26549;50.918;5.338;2024-02-16T04:16:45;15.30;99.90
40828;DHT22;26549;50.918;5.338;2024-02-16T04:21:57;15.20;99.90
40828;DHT22;26549;50.918;5.338;2024-02-16T04:24:23;15.20;99.90
40828;DHT22;26549;50.918;5.338;2024-02-16T04:26:49;15.10;99.90
40828;DHT22;26549;50.918;5.338;2024-02-16T04:29:15;15.30;99.90
40828;DHT22;26549;50.918;5.338;2024-02-16T04:31:42;15.30;99.90
40828;DHT22;26549;50.918;5.338;2024-02-16T04:36:55;15.20;99.90
40828;DHT22;26549;50.918;5.338;2024-02-16T04:39:21;15.20;99.90
40828;DHT22;26549;50.918;5.338;2024-02-16T04:41:46;15.20;99.90
40828;DHT22;26549;50.918;5.338;2024-02-16T04:44:12;15.30;99.90
40828;DHT22;26549;50.918;5.338;2024-02-16T04:46:38;15.20;99.90
40828;DHT22;26549;50.918;5.338;2024-02-16T04:49:04;15.20;99.90
40828;DHT22;26549;50.918;5.338;2024-02-16T04:51:48;15.20;99.90
40828;DHT22;26549;50.918;5.338;2024-02-16T04:54:14;15.20;99.90
40828;DHT22;26549;50.918;5.338;2024-02-16T04:56:40;15.20;99.90
40828;DHT22;26549;50.918;5.338;2024-02-16T04:59:24;15.30;99.90
40828;DHT22;26549;50.918;5.338;2024-02-16T05:04:34;15.40;99.90
40828;DHT22;26549;50.918;5.338;2024-02-16T05:07:00;15.40;99.90
40828;DHT22;26549;50.918;5.338;2024-02-16T05:09:25;15.40;99.90
40828;DHT22;26549;50.918;5.338;2024-02-16T05:11:52;15.40;99.90
40828;DHT22;26549;50.918;5.338;2024-02-16T05:14:18;15.30;99.90
40828;DHT22;26549;50.918;5.338;2024-02-16T05:16:44;15.40;99.90
40828;DHT22;26549;50.918;5.338;2024-02-16T05:21:55;15.50;99.90
40828;DHT22;26549;50.918;5.338;2024-02-16T05:24:21;15.50;99.90
40828;DHT22;26549;50.918;5.338;2024-02-16T05:26:47;15.40;99.90
40828;DHT22;26549;50.918;5.338;2024-02-16T05:29:13;15.30;99.90
40828;DHT22;26549;50.918;5.338;2024-02-16T05:31:39;15.30;99.90
40828;DHT22;26549;50.918;5.338;2024-02-16T05:34:04;15.40;99.90
40828;DHT22;26549;50.918;5.338;2024-02-16T05:36:30;15.50;99.90
40828;DHT22;26549;50.918;5.338;2024-02-16T05:39:01;15.40;99.90
40828;DHT22;26549;50.918;5.338;2024-02-16T05:41:46;15.30;99.90
40828;DHT22;26549;50.918;5.338;2024-02-16T05:44:11;15.30;99.90
40828;DHT22;26549;50.918;5.338;2024-02-16T05:46:37;15.30;99.90
40828;DHT22;26549;50.918;5.338;2024-02-16T05:49:04;15.20;99.90
40828;DHT22;26549;50.918;5.338;2024-02-16T05:51:37;15.20;99.90
40828;DHT22;26549;50.918;5.338;2024-02-16T05:54:03;15.30;99.90
40828;DHT22;26549;50.918;5.338;2024-02-16T05:56:29;15.40;99.90
40828;DHT22;26549;50.918;5.338;2024-02-16T05:58:55;15.20;99.90
40828;DHT22;26549;50.918;5.338;2024-02-16T06:01:21;15.20;99.90
40828;DHT22;26549;50.918;5.338;2024-02-16T06:03:47;15.20;99.90
40828;DHT22;26549;50.918;5.338;2024-02-16T06:06:13;15.20;99.90
40828;DHT22;26549;50.918;5.338;2024-02-16T06:08:39;15.10;99.90
40828;DHT22;26549;50.918;5.338;2024-02-16T06:11:07;15.20;99.90
40828;DHT22;26549;50.918;5.338;2024-02-16T06:13:33;15.10;99.90
40828;DHT22;26549;50.918;5.338;2024-02-16T06:15:59;15.20;99.90
40828;DHT22;26549;50.918;5.338;2024-02-16T06:18:24;15.00;99.90
40828;DHT22;26549;50.918;5.338;2024-02-16T06:20:50;15.00;99.90
40828;DHT22;26549;50.918;5.338;2024-02-16T06:23:16;15.00;99.90
40828;DHT22;26549;50.918;5.338;2024-02-16T06:25:43;15.10;99.90
40828;DHT22;26549;50.918;5.338;2024-02-16T06:28:08;15.10;99.90
40828;DHT22;26549;50.918;5.338;2024-02-16T06:30:35;15.10;99.90
40828;DHT22;26549;50.918;5.338;2024-02-16T06:33:38;15.10;99.90
40828;DHT22;26549;50.918;5.338;2024-02-16T06:36:04;15.10;99.90
40828;DHT22;26549;50.918;5.338;2024-02-16T06:38:29;15.20;99.90
40828;DHT22;26549;50.918;5.338;2024-02-16T06:40:55;15.10;99.90
40828;DHT22;26549;50.918;5.338;2024-02-16T06:43:40;14.90;99.90
40828;DHT22;26549;50.918;5.338;2024-02-16T06:46:05;14.90;99.90
40828;DHT22;26549;50.918;5.338;2024-02-16T06:48:31;15.00;99.90
40828;DHT22;26549;50.918;5.338;2024-02-16T06:54:00;14.90;99.90
40828;DHT22;26549;50.918;5.338;2024-02-16T06:56:26;14.90;99.90
40828;DHT22;26549;50.918;5.338;2024-02-16T06:58:52;15.00;99.90
40828;DHT22;26549;50.918;5.338;2024-02-16T07:01:17;14.90;99.90
40828;DHT22;26549;50.918;5.338;2024-02-16T07:03:46;14.90;99.90
40828;DHT22;26549;50.918;5.338;2024-02-16T07:06:12;15.00;99.90
40828;DHT22;26549;50.918;5.338;2024-02-16T07:11:28;15.10;99.90
40828;DHT22;26549;50.918;5.338;2024-02-16T07:14:13;15.10;99.90
40828;DHT22;26549;50.918;5.338;2024-02-16T07:16:38;15.20;99.90
40828;DHT22;26549;50.918;5.338;2024-02-16T07:19:04;15.10;99.90
40828;DHT22;26549;50.918;5.338;2024-02-16T07:21:30;15.20;99.90
40828;DHT22;26549;50.918;5.338;2024-02-16T07:23:56;15.20;99.90
40828;DHT22;26549;50.918;5.338;2024-02-16T07:26:22;15.10;99.90
40828;DHT22;26549;50.918;5.338;2024-02-16T07:28:48;15.10;99.90
40828;DHT22;26549;50.918;5.338;2024-02-16T07:31:14;15.20;99.90
40828;DHT22;26549;50.918;5.338;2024-02-16T07:33:41;15.10;99.90
40828;DHT22;26549;50.918;5.338;2024-02-16T07:36:08;15.10;99.90
40828;DHT22;26549;50.918;5.338;2024-02-16T07:38:34;15.10;99.90
40828;DHT22;26549;50.918;5.338;2024-02-16T07:40:59;15.10;99.90
40828;DHT22;26549;50.918;5.338;2024-02-16T07:43:27;15.20;99.90
40828;DHT22;26549;50.918;5.338;2024-02-16T07:45:52;15.20;99.90
40828;DHT22;26549;50.918;5.338;2024-02-16T07:48:21;15.20;99.90
40828;DHT22;26549;50.918;5.338;2024-02-16T07:50:47;15.20;99.90
40828;DHT22;26549;50.918;5.338;2024-02-16T07:53:14;15.30;99.90
40828;DHT22;26549;50.918;5.338;2024-02-16T07:55:41;15.20;99.90
40828;DHT22;26549;50.918;5.338;2024-02-16T07:58:06;15.20;99.90
40828;DHT22;26549;50.918;5.338;2024-02-16T08:00:32;15.30;99.90
40828;DHT22;26549;50.918;5.338;2024-02-16T08:02:58;15.30;99.90
40828;DHT22;26549;50.918;5.338;2024-02-16T08:08:09;15.40;99.90
40828;DHT22;26549;50.918;5.338;2024-02-16T08:10:34;15.30;99.90
40828;DHT22;26549;50.918;5.338;2024-02-16T08:13:01;15.40;99.90
40828;DHT22;26549;50.918;5.338;2024-02-16T08:15:27;15.40;99.90
40828;DHT22;26549;50.918;5.338;2024-02-16T08:17:53;15.40;99.90
40828;DHT22;26549;50.918;5.338;2024-02-16T08:20:19;15.30;99.90
40828;DHT22;26549;50.918;5.338;2024-02-16T08:22:46;15.30;99.90
40828;DHT22;26549;50.918;5.338;2024-02-16T08:25:12;15.40;99.90
40828;DHT22;26549;50.918;5.338;2024-02-16T08:27:37;15.30;99.90
40828;DHT22;26549;50.918;5.338;2024-02-16T08:30:04;15.30;99.90
40828;DHT22;26549;50.918;5.338;2024-02-16T08:32:30;15.40;99.90
40828;DHT22;26549;50.918;5.338;2024-02-16T08:34:56;15.40;99.90
40828;DHT22;26549;50.918;5.338;2024-02-16T08:37:23;15.40;99.90
40828;DHT22;26549;50.918;5.338;2024-02-16T08:39:49;15.40;99.90
40828;DHT22;26549;50.918;5.338;2024-02-16T08:42:15;15.40;99.90
40828;DHT22;26549;50.918;5.338;2024-02-16T08:44:41;15.50;99.90
40828;DHT22;26549;50.918;5.338;2024-02-16T08:47:08;15.40;99.90
40828;DHT22;26549;50.918;5.338;2024-02-16T08:49:34;15.60;99.90
40828;DHT22;26549;50.918;5.338;2024-02-16T08:52:01;15.60;99.90
40828;DHT22;26549;50.918;5.338;2024-02-16T08:54:27;15.60;99.90
40828;DHT22;26549;50.918;5.338;2024-02-16T08:56:56;15.70;99.90
40828;DHT22;26549;50.918;5.338;2024-02-16T08:59:22;15.60;99.90
40828;DHT22;26549;50.918;5.338;2024-02-16T09:01:48;15.70;99.90
40828;DHT22;26549;50.918;5.338;2024-02-16T09:04:14;15.70;99.90
40828;DHT22;26549;50.918;5.338;2024-02-16T09:06:41;15.70;99.90
40828;DHT22;26549;50.918;5.338;2024-02-16T09:09:07;15.70;99.90
40828;DHT22;26549;50.918;5.338;2024-02-16T09:11:33;15.70;99.90
40828;DHT22;26549;50.918;5.338;2024-02-16T09:13:59;15.70;99.90
40828;DHT22;26549;50.918;5.338;2024-02-16T09:16:26;15.70;99.90
40828;DHT22;26549;50.918;5.338;2024-02-16T09:18:51;15.70;99.90
40828;DHT22;26549;50.918;5.338;2024-02-16T09:21:17;15.80;99.90
40828;DHT22;26549;50.918;5.338;2024-02-16T09:23:43;15.90;99.90
40828;DHT22;26549;50.918;5.338;2024-02-16T09:26:09;15.80;99.90
40828;DHT22;26549;50.918;5.338;2024-02-16T09:28:39;15.70;99.90
40828;DHT22;26549;50.918;5.338;2024-02-16T09:31:06;15.70;99.90
40828;DHT22;26549;50.918;5.338;2024-02-16T09:33:33;15.80;99.90
40828;DHT22;26549;50.918;5.338;2024-02-16T09:35:59;15.70;99.90
40828;DHT22;26549;50.918;5.338;2024-02-16T09:38:25;15.80;99.90
40828;DHT22;26549;50.918;5.338;2024-02-16T09:40:51;15.80;99.90
40828;DHT22;26549;50.918;5.338;2024-02-16T09:43:27;15.80;99.90
40828;DHT22;26549;50.918;5.338;2024-02-16T09:45:57;15.80;99.90
40828;DHT22;26549;50.918;5.338;2024-02-16T09:48:26;15.80;99.90
40828;DHT22;26549;50.918;5.338;2024-02-16T09:50:54;15.80;99.90
40828;DHT22;26549;50.918;5.338;2024-02-16T09:53:21;15.70;99.90
40828;DHT22;26549;50.918;5.338;2024-02-16T09:55:49;15.70;99.90
40828;DHT22;26549;50.918;5.338;2024-02-16T09:58:16;15.70;99.90
40828;DHT22;26549;50.918;5.338;2024-02-16T10:00:54;15.70;99.90
40828;DHT22;26549;50.918;5.338;2024-02-16T10:03:29;15.80;99.90
40828;DHT22;26549;50.918;5.338;2024-02-16T10:06:10;15.80;99.90
40828;DHT22;26549;50.918;5.338;2024-02-16T10:08:53;15.70;99.90
40828;DHT22;26549;50.918;5.338;2024-02-16T10:11:21;15.80;99.90
40828;DHT22;26549;50.918;5.338;2024-02-16T10:14:03;15.70;99.90
40828;DHT22;26549;50.918;5.338;2024-02-16T10:16:30;15.70;99.90
40828;DHT22;26549;50.918;5.338;2024-02-16T10:19:05;15.70;99.90
40828;DHT22;26549;50.918;5.338;2024-02-16T10:21:31;15.80;99.90
40828;DHT22;26549;50.918;5.338;2024-02-16T10:24:00;15.90;99.90
40828;DHT22;26549;50.918;5.338;2024-02-16T10:26:28;15.90;99.90
40828;DHT22;26549;50.918;5.338;2024-02-16T10:28:55;15.90;99.90
40828;DHT22;26549;50.918;5.338;2024-02-16T10:31:23;15.90;99.90
40828;DHT22;26549;50.918;5.338;2024-02-16T10:34:03;15.90;99.90
40828;DHT22;26549;50.918;5.338;2024-02-16T10:36:33;15.80;99.90
40828;DHT22;26549;50.918;5.338;2024-02-16T10:39:00;15.70;99.90
40828;DHT22;26549;50.918;5.338;2024-02-16T10:41:31;15.70;99.90
40828;DHT22;26549;50.918;5.338;2024-02-16T10:44:01;15.70;99.90
40828;DHT22;26549;50.918;5.338;2024-02-16T10:46:27;15.70;99.90
40828;DHT22;26549;50.918;5.338;2024-02-16T10:48:53;15.70;99.90
40828;DHT22;26549;50.918;5.338;2024-02-16T10:51:37;15.60;99.90
40828;DHT22;26549;50.918;5.338;2024-02-16T10:54:04;15.50;99.90
40828;DHT22;26549;50.918;5.338;2024-02-16T10:56:35;15.60;99.90
40828;DHT22;26549;50.918;5.338;2024-02-16T10:59:02;15.60;99.90
40828;DHT22;26549;50.918;5.338;2024-02-16T11:01:36;15.70;99.90
40828;DHT22;26549;50.918;5.338;2024-02-16T11:04:06;15.70;99.90
40828;DHT22;26549;50.918;5.338;2024-02-16T11:09:28;15.70;99.90
40828;DHT22;26549;50.918;5.338;2024-02-16T11:12:03;15.70;99.90
40828;DHT22;26549;50.918;5.338;2024-02-16T11:14:43;15.70;99.90
40828;DHT22;26549;50.918;5.338;2024-02-16T11:17:11;15.60;99.90
40828;DHT22;26549;50.918;5.338;2024-02-16T11:19:37;15.50;99.90
40828;DHT22;26549;50.918;5.338;2024-02-16T11:22:06;15.50;99.90
40828;DHT22;26549;50.918;5.338;2024-02-16T11:24:43;15.50;99.90
40828;DHT22;26549;50.918;5.338;2024-02-16T11:27:10;15.60;99.90
40828;DHT22;26549;50.918;5.338;2024-02-16T11:29:38;15.70;99.90
40828;DHT22;26549;50.918;5.338;2024-02-16T11:32:05;15.70;99.90
40828;DHT22;26549;50.918;5.338;2024-02-16T11:34:32;15.70;99.90
40828;DHT22;26549;50.918;5.338;2024-02-16T11:37:00;15.70;99.90
40828;DHT22;26549;50.918;5.338;2024-02-16T11:39:27;15.60;99.90
40828;DHT22;26549;50.918;5.338;2024-02-16T11:42:00;15.60;99.90
40828;DHT22;26549;50.918;5.338;2024-02-16T11:44:31;15.70;99.90
40828;DHT22;26549;50.918;5.338;2024-02-16T11:47:00;15.70;99.90
40828;DHT22;26549;50.918;5.338;2024-02-16T11:49:28;15.70;99.90
40828;DHT22;26549;50.918;5.338;2024-02-16T11:52:00;15.60;99.90
40828;DHT22;26549;50.918;5.338;2024-02-16T11:54:26;15.70;99.90
40828;DHT22;26549;50.918;5.338;2024-02-16T11:56:52;15.90;99.90
40828;DHT22;26549;50.918;5.338;2024-02-16T11:59:21;15.80;99.90
40828;DHT22;26549;50.918;5.338;2024-02-16T12:01:55;15.70;99.90
40828;DHT22;26549;50.918;5.338;2024-02-16T12:04:28;15.70;99.90
40828;DHT22;26549;50.918;5.338;2024-02-16T12:06:59;15.70;99.90
40828;DHT22;26549;50.918;5.338;2024-02-16T12:09:27;15.70;99.90
40828;DHT22;26549;50.918;5.338;2024-02-16T12:11:54;15.70;99.90
40828;DHT22;26549;50.918;5.338;2024-02-16T12:14:24;15.60;99.90
40828;DHT22;26549;50.918;5.338;2024-02-16T12:16:58;15.50;99.90
40828;DHT22;26549;50.918;5.338;2024-02-16T12:19:25;15.50;99.90
40828;DHT22;26549;50.918;5.338;2024-02-16T12:21:55;15.70;99.90
40828;DHT22;26549;50.918;5.338;2024-02-16T12:24:24;15.60;99.90
40828;DHT22;26549;50.918;5.338;2024-02-16T12:26:50;15.60;99.90
40828;DHT22;26549;50.918;5.338;2024-02-16T12:29:16;15.60;99.90
40828;DHT22;26549;50.918;5.338;2024-02-16T12:31:43;15.50;99.90
40828;DHT22;26549;50.918;5.338;2024-02-16T12:34:10;15.40;99.90
40828;DHT22;26549;50.918;5.338;2024-02-16T12:36:39;15.50;99.90
40828;DHT22;26549;50.918;5.338;2024-02-16T12:39:08;15.40;99.90
40828;DHT22;26549;50.918;5.338;2024-02-16T12:41:39;15.50;99.90
40828;DHT22;26549;50.918;5.338;2024-02-16T12:44:07;15.40;99.90
40828;DHT22;26549;50.918;5.338;2024-02-16T12:46:32;15.40;99.90
40828;DHT22;26549;50.918;5.338;2024-02-16T12:48:58;15.40;99.90
40828;DHT22;26549;50.918;5.338;2024-02-16T12:51:24;15.30;99.90
40828;DHT22;26549;50.918;5.338;2024-02-16T12:53:51;15.40;99.90
40828;DHT22;26549;50.918;5.338;2024-02-16T12:56:16;15.20;99.90
40828;DHT22;26549;50.918;5.338;2024-02-16T12:58:42;15.30;99.90
40828;DHT22;26549;50.918;5.338;2024-02-16T13:01:08;15.30;99.90
40828;DHT22;26549;50.918;5.338;2024-02-16T13:03:35;15.30;99.90
40828;DHT22;26549;50.918;5.338;2024-02-16T13:06:01;15.30;99.90
40828;DHT22;26549;50.918;5.338;2024-02-16T13:08:28;15.30;99.90
40828;DHT22;26549;50.918;5.338;2024-02-16T13:10:55;15.20;99.90
40828;DHT22;26549;50.918;5.338;2024-02-16T13:13:21;15.10;99.90
40828;DHT22;26549;50.918;5.338;2024-02-16T13:15:47;15.20;99.90
40828;DHT22;26549;50.918;5.338;2024-02-16T13:18:14;15.20;99.90
40828;DHT22;26549;50.918;5.338;2024-02-16T13:20:40;15.20;99.90
40828;DHT22;26549;50.918;5.338;2024-02-16T13:23:06;15.10;99.90
40828;DHT22;26549;50.918;5.338;2024-02-16T13:25:32;15.10;99.90
40828;DHT22;26549;50.918;5.338;2024-02-16T13:27:58;15.00;99.90
40828;DHT22;26549;50.918;5.338;2024-02-16T13:30:25;15.00;99.90
40828;DHT22;26549;50.918;5.338;2024-02-16T13:32:53;14.90;99.90
40828;DHT22;26549;50.918;5.338;2024-02-16T13:35:19;15.00;99.90
40828;DHT22;26549;50.918;5.338;2024-02-16T13:37:45;15.00;99.90
40828;DHT22;26549;50.918;5.338;2024-02-16T13:40:12;15.20;99.90
40828;DHT22;26549;50.918;5.338;2024-02-16T13:42:39;15.00;99.90
40828;DHT22;26549;50.918;5.338;2024-02-16T13:45:06;15.00;99.90
40828;DHT22;26549;50.918;5.338;2024-02-16T13:47:31;15.00;99.90
40828;DHT22;26549;50.918;5.338;2024-02-16T13:49:57;14.90;99.90
40828;DHT22;26549;50.918;5.338;2024-02-16T13:52:25;15.10;99.90
40828;DHT22;26549;50.918;5.338;2024-02-16T13:55:00;15.20;99.90
40828;DHT22;26549;50.918;5.338;2024-02-16T13:57:26;15.30;99.90
40828;DHT22;26549;50.918;5.338;2024-02-16T13:59:53;15.20;99.90
40828;DHT22;26549;50.918;5.338;2024-02-16T14:02:19;15.20;99.90
40828;DHT22;26549;50.918;5.338;2024-02-16T14:04:45;15.30;99.90
40828;DHT22;26549;50.918;5.338;2024-02-16T14:07:11;15.10;99.90
40828;DHT22;26549;50.918;5.338;2024-02-16T14:09:37;15.00;99.90
40828;DHT22;26549;50.918;5.338;2024-02-16T14:12:03;15.10;99.90
40828;DHT22;26549;50.918;5.338;2024-02-16T14:14:29;14.90;99.90
40828;DHT22;26549;50.918;5.338;2024-02-16T14:16:55;15.00;99.90
40828;DHT22;26549;50.918;5.338;2024-02-16T14:19:22;14.90;99.90
40828;DHT22;26549;50.918;5.338;2024-02-16T14:21:47;15.00;99.90
40828;DHT22;26549;50.918;5.338;2024-02-16T14:24:13;15.20;99.90
40828;DHT22;26549;50.918;5.338;2024-02-16T14:26:39;15.00;99.90
40828;DHT22;26549;50.918;5.338;2024-02-16T14:29:06;15.10;99.90
40828;DHT22;26549;50.918;5.338;2024-02-16T14:31:32;15.10;99.90
40828;DHT22;26549;50.918;5.338;2024-02-16T14:34:02;15.10;99.90
40828;DHT22;26549;50.918;5.338;2024-02-16T14:36:28;14.80;99.90
40828;DHT22;26549;50.918;5.338;2024-02-16T14:38:55;14.60;99.90
40828;DHT22;26549;50.918;5.338;2024-02-16T14:41:20;14.70;99.90
40828;DHT22;26549;50.918;5.338;2024-02-16T14:43:47;14.90;99.90
40828;DHT22;26549;50.918;5.338;2024-02-16T14:46:13;15.00;99.90
40828;DHT22;26549;50.918;5.338;2024-02-16T14:48:41;15.00;99.90
40828;DHT22;26549;50.918;5.338;2024-02-16T14:51:06;14.90;99.90
40828;DHT22;26549;50.918;5.338;2024-02-16T14:53:32;14.90;99.90
40828;DHT22;26549;50.918;5.338;2024-02-16T14:55:59;15.00;99.90
40828;DHT22;26549;50.918;5.338;2024-02-16T14:58:25;15.00;99.90
40828;DHT22;26549;50.918;5.338;2024-02-16T15:00:51;14.90;99.90
40828;DHT22;26549;50.918;5.338;2024-02-16T15:03:18;14.90;99.90
40828;DHT22;26549;50.918;5.338;2024-02-16T15:05:46;14.80;99.90
40828;DHT22;26549;50.918;5.338;2024-02-16T15:08:12;14.90;99.90
40828;DHT22;26549;50.918;5.338;2024-02-16T15:10:38;15.00;99.90
40828;DHT22;26549;50.918;5.338;2024-02-16T15:13:03;15.10;99.90
40828;DHT22;26549;50.918;5.338;2024-02-16T15:15:32;15.00;99.90
40828;DHT22;26549;50.918;5.338;2024-02-16T15:18:01;15.10;99.90
40828;DHT22;26549;50.918;5.338;2024-02-16T15:20:27;15.10;99.90
40828;DHT22;26549;50.918;5.338;2024-02-16T15:22:53;15.10;99.90
40828;DHT22;26549;50.918;5.338;2024-02-16T15:25:23;15.10;99.90
40828;DHT22;26549;50.918;5.338;2024-02-16T15:27:50;15.10;99.90
40828;DHT22;26549;50.918;5.338;2024-02-16T15:30:20;15.00;99.90
40828;DHT22;26549;50.918;5.338;2024-02-16T15:32:46;15.00;99.90
40828;DHT22;26549;50.918;5.338;2024-02-16T15:35:12;15.00;99.90
40828;DHT22;26549;50.918;5.338;2024-02-16T15:37:37;15.00;99.90
40828;DHT22;26549;50.918;5.338;2024-02-16T15:40:04;14.90;99.90
40828;DHT22;26549;50.918;5.338;2024-02-16T15:42:30;14.70;99.90
40828;DHT22;26549;50.918;5.338;2024-02-16T15:44:57;14.60;99.90
40828;DHT22;26549;50.918;5.338;2024-02-16T15:47:25;14.60;99.90
40828;DHT22;26549;50.918;5.338;2024-02-16T15:49:51;14.80;99.90
40828;DHT22;26549;50.918;5.338;2024-02-16T15:52:17;14.70;99.90
40828;DHT22;26549;50.918;5.338;2024-02-16T15:54:43;14.80;99.90
40828;DHT22;26549;50.918;5.338;2024-02-16T15:57:08;14.80;99.90
40828;DHT22;26549;50.918;5.338;2024-02-16T15:59:35;14.90;99.90
40828;DHT22;26549;50.918;5.338;2024-02-16T16:02:01;14.90;99.90
40828;DHT22;26549;50.918;5.338;2024-02-16T16:04:29;14.90;99.90
40828;DHT22;26549;50.918;5.338;2024-02-16T16:06:58;14.90;99.90
40828;DHT22;26549;50.918;5.338;2024-02-16T16:09:23;14.90;99.90
40828;DHT22;26549;50.918;5.338;2024-02-16T16:11:51;14.90;99.90
40828;DHT22;26549;50.918;5.338;2024-02-16T16:14:17;14.90;99.90
40828;DHT22;26549;50.918;5.338;2024-02-16T16:16:43;14.80;99.90
40828;DHT22;26549;50.918;5.338;2024-02-16T16:19:09;14.90;99.90